sensor_id;sensor_type;location;lat;lon;timestamp;pressure;altitude;pressure_sealevel;temperature;humidity
32109;BME280;18624;50.042;8.436;2023-02-28T00:00:25;101595.16;;;1.23;62.88
32109;BME280;18624;50.042;8.436;2023-02-28T00:02:52;101596.94;;;1.19;63.17
32109;BME280;18624;50.042;8.436;2023-02-28T00:05:22;101593.91;;;1.20;63.43
32109;BME280;18624;50.042;8.436;2023-02-28T00:07:50;101593.13;;;1.20;63.84
32109;BME280;18624;50.042;8.436;2023-02-28T00:10:19;101596.94;;;1.19;63.96
32109;BME280;18624;50.042;8.436;2023-02-28T00:12:47;101591.66;;;1.22;65.08
32109;BME280;18624;50.042;8.436;2023-02-28T00:15:14;101582.97;;;1.05;65.62
32109;BME280;18624;50.042;8.436;2023-02-28T00:17:41;101593.13;;;1.20;65.73
32109;BME280;18624;50.042;8.436;2023-02-28T00:20:08;101605.84;;;1.19;66.44
32109;BME280;18624;50.042;8.436;2023-02-28T00:22:40;101599.19;;;1.17;67.23
32109;BME280;18624;50.042;8.436;2023-02-28T00:25:08;101601.09;;;1.16;66.94
32109;BME280;18624;50.042;8.436;2023-02-28T00:27:36;101588.25;;;1.01;68.23
32109;BME280;18624;50.042;8.436;2023-02-28T00:30:04;101493.97;;;0.50;67.58
32109;BME280;18624;50.042;8.436;2023-02-28T00:32:31;101605.97;;;1.23;67.56
32109;BME280;18624;50.042;8.436;2023-02-28T00:34:57;101596.47;;;1.17;68.08
32109;BME280;18624;50.042;8.436;2023-02-28T00:37:24;101604.13;;;1.15;68.26
32109;BME280;18624;50.042;8.436;2023-02-28T00:39:50;101603.47;;;1.18;67.73
32109;BME280;18624;50.042;8.436;2023-02-28T00:42:16;101600.31;;;1.16;68.53
32109;BME280;18624;50.042;8.436;2023-02-28T00:44:43;101596.03;;;1.15;68.74
32109;BME280;18624;50.042;8.436;2023-02-28T00:47:10;101595.69;;;1.04;69.08
32109;BME280;18624;50.042;8.436;2023-02-28T00:49:37;101596.78;;;1.03;69.42
32109;BME280;18624;50.042;8.436;2023-02-28T00:52:03;101598.81;;;1.06;69.69
32109;BME280;18624;50.042;8.436;2023-02-28T00:54:30;101597.91;;;1.02;70.20
32109;BME280;18624;50.042;8.436;2023-02-28T00:56:56;101595.09;;;0.98;70.54
32109;BME280;18624;50.042;8.436;2023-02-28T00:59:24;101598.13;;;0.97;70.80
32109;BME280;18624;50.042;8.436;2023-02-28T01:01:50;101584.47;;;0.81;71.16
32109;BME280;18624;50.042;8.436;2023-02-28T01:04:17;101474.69;;;0.07;71.76
32109;BME280;18624;50.042;8.436;2023-02-28T01:06:43;101598.63;;;0.78;72.07
32109;BME280;18624;50.042;8.436;2023-02-28T01:09:11;101595.81;;;0.74;73.15
32109;BME280;18624;50.042;8.436;2023-02-28T01:11:38;101589.47;;;0.70;73.38
32109;BME280;18624;50.042;8.436;2023-02-28T01:14:05;101598.84;;;0.73;73.54
32109;BME280;18624;50.042;8.436;2023-02-28T01:16:31;101593.88;;;0.75;74.15
32109;BME280;18624;50.042;8.436;2023-02-28T01:18:58;101593.53;;;0.76;74.56
32109;BME280;18624;50.042;8.436;2023-02-28T01:21:25;101588.25;;;0.68;75.45
32109;BME280;18624;50.042;8.436;2023-02-28T01:23:51;101591.69;;;0.56;76.49
32109;BME280;18624;50.042;8.436;2023-02-28T01:26:21;101589.06;;;0.47;77.99
32109;BME280;18624;50.042;8.436;2023-02-28T01:28:50;101580.88;;;0.35;79.06
32109;BME280;18624;50.042;8.436;2023-02-28T01:31:18;101580.59;;;0.37;80.04
32109;BME280;18624;50.042;8.436;2023-02-28T01:33:45;101544.88;;;0.19;79.96
32109;BME280;18624;50.042;8.436;2023-02-28T01:36:13;101589.25;;;0.42;80.45
32109;BME280;18624;50.042;8.436;2023-02-28T01:38:40;101579.19;;;0.52;80.28
32109;BME280;18624;50.042;8.436;2023-02-28T01:41:07;101572.72;;;0.44;80.94
32109;BME280;18624;50.042;8.436;2023-02-28T01:46:12;101579.59;;;0.41;81.56
32109;BME280;18624;50.042;8.436;2023-02-28T01:48:42;101581.16;;;0.42;81.17
32109;BME280;18624;50.042;8.436;2023-02-28T01:51:16;101577.53;;;0.38;81.72
32109;BME280;18624;50.042;8.436;2023-02-28T01:53:47;101582.34;;;0.33;82.78
32109;BME280;18624;50.042;8.436;2023-02-28T01:56:20;101577.47;;;0.26;83.19
32109;BME280;18624;50.042;8.436;2023-02-28T01:58:50;101565.59;;;0.27;82.88
32109;BME280;18624;50.042;8.436;2023-02-28T02:01:18;101570.09;;;0.35;82.95
32109;BME280;18624;50.042;8.436;2023-02-28T02:03:50;101563.72;;;0.40;82.98
32109;BME280;18624;50.042;8.436;2023-02-28T02:06:56;101571.03;;;0.39;82.98
32109;BME280;18624;50.042;8.436;2023-02-28T02:09:24;101569.66;;;0.33;83.66
32109;BME280;18624;50.042;8.436;2023-02-28T02:11:51;101568.41;;;0.31;84.18
32109;BME280;18624;50.042;8.436;2023-02-28T02:14:45;101566.63;;;0.35;83.82
32109;BME280;18624;50.042;8.436;2023-02-28T02:17:38;101571.38;;;0.38;83.88
32109;BME280;18624;50.042;8.436;2023-02-28T02:20:47;101567.09;;;0.37;84.41
32109;BME280;18624;50.042;8.436;2023-02-28T02:29:34;101557.41;;;0.36;84.47
32109;BME280;18624;50.042;8.436;2023-02-28T02:34:48;101565.44;;;0.23;84.29
32109;BME280;18624;50.042;8.436;2023-02-28T02:37:25;101564.84;;;0.18;84.89
32109;BME280;18624;50.042;8.436;2023-02-28T02:40:16;101564.59;;;0.11;85.21
32109;BME280;18624;50.042;8.436;2023-02-28T02:45:36;101566.16;;;0.12;84.97
32109;BME280;18624;50.042;8.436;2023-02-28T02:48:08;101566.06;;;-0.01;85.44
32109;BME280;18624;50.042;8.436;2023-02-28T02:50:41;101559.41;;;0.06;85.22
32109;BME280;18624;50.042;8.436;2023-02-28T02:53:11;101559.19;;;0.11;84.47
32109;BME280;18624;50.042;8.436;2023-02-28T02:55:41;101561.75;;;0.07;83.96
32109;BME280;18624;50.042;8.436;2023-02-28T02:58:18;101569.44;;;-0.04;84.37
32109;BME280;18624;50.042;8.436;2023-02-28T03:00:50;101564.56;;;-0.10;84.38
32109;BME280;18624;50.042;8.436;2023-02-28T03:03:19;101561.28;;;-0.16;84.31
32109;BME280;18624;50.042;8.436;2023-02-28T03:06:00;101567.25;;;-0.10;84.05
32109;BME280;18624;50.042;8.436;2023-02-28T03:08:28;101556.75;;;-0.03;83.59
32109;BME280;18624;50.042;8.436;2023-02-28T03:11:07;101565.28;;;-0.01;83.48
32109;BME280;18624;50.042;8.436;2023-02-28T03:24:52;101560.19;;;-0.23;84.44
32109;BME280;18624;50.042;8.436;2023-02-28T03:27:36;101558.56;;;-0.16;84.39
32109;BME280;18624;50.042;8.436;2023-02-28T03:30:22;101559.75;;;-0.26;84.58
32109;BME280;18624;50.042;8.436;2023-02-28T03:33:08;101565.97;;;-0.34;84.75
32109;BME280;18624;50.042;8.436;2023-02-28T03:35:43;101559.97;;;-0.39;85.42
32109;BME280;18624;50.042;8.436;2023-02-28T03:38:19;101556.63;;;-0.36;85.24
32109;BME280;18624;50.042;8.436;2023-02-28T03:40:57;101553.63;;;-0.35;84.87
32109;BME280;18624;50.042;8.436;2023-02-28T03:43:28;101546.75;;;-0.53;86.00
32109;BME280;18624;50.042;8.436;2023-02-28T03:45:58;101555.59;;;-0.53;86.13
32109;BME280;18624;50.042;8.436;2023-02-28T03:48:37;101553.19;;;-0.45;85.56
32109;BME280;18624;50.042;8.436;2023-02-28T03:51:07;101567.31;;;-0.48;85.61
32109;BME280;18624;50.042;8.436;2023-02-28T03:53:40;101558.44;;;-0.49;86.02
32109;BME280;18624;50.042;8.436;2023-02-28T03:56:16;101556.63;;;-0.36;84.92
32109;BME280;18624;50.042;8.436;2023-02-28T03:58:49;101554.59;;;-0.39;84.39
32109;BME280;18624;50.042;8.436;2023-02-28T04:01:27;101561.22;;;-0.37;84.19
32109;BME280;18624;50.042;8.436;2023-02-28T04:03:56;101553.81;;;-0.40;84.60
32109;BME280;18624;50.042;8.436;2023-02-28T04:06:23;101558.56;;;-0.45;84.29
32109;BME280;18624;50.042;8.436;2023-02-28T04:08:50;101557.28;;;-0.39;84.31
32109;BME280;18624;50.042;8.436;2023-02-28T04:11:21;101548.31;;;-0.52;84.55
32109;BME280;18624;50.042;8.436;2023-02-28T04:13:48;101566.97;;;-0.47;84.30
32109;BME280;18624;50.042;8.436;2023-02-28T04:16:15;101568.25;;;-0.44;83.96
32109;BME280;18624;50.042;8.436;2023-02-28T04:18:59;101559.69;;;-0.46;83.87
32109;BME280;18624;50.042;8.436;2023-02-28T04:21:36;101561.69;;;-0.35;83.21
32109;BME280;18624;50.042;8.436;2023-02-28T04:24:03;101517.66;;;-0.68;82.72
32109;BME280;18624;50.042;8.436;2023-02-28T04:26:30;101570.09;;;-0.36;82.13
32109;BME280;18624;50.042;8.436;2023-02-28T04:28:58;101563.88;;;-0.28;81.68
32109;BME280;18624;50.042;8.436;2023-02-28T04:31:24;101571.69;;;-0.35;81.28
32109;BME280;18624;50.042;8.436;2023-02-28T04:33:51;101577.41;;;-0.45;81.92
32109;BME280;18624;50.042;8.436;2023-02-28T04:36:17;101576.78;;;-0.42;81.77
32109;BME280;18624;50.042;8.436;2023-02-28T04:38:45;101573.75;;;-0.41;81.62
32109;BME280;18624;50.042;8.436;2023-02-28T04:41:13;101570.09;;;-0.36;81.84
32109;BME280;18624;50.042;8.436;2023-02-28T04:43:39;101488.09;;;-0.86;80.88
32109;BME280;18624;50.042;8.436;2023-02-28T04:46:06;101575.81;;;-0.38;80.36
32109;BME280;18624;50.042;8.436;2023-02-28T04:48:35;101555.56;;;-0.44;80.08
32109;BME280;18624;50.042;8.436;2023-02-28T04:51:04;101565.03;;;-0.38;80.38
32109;BME280;18624;50.042;8.436;2023-02-28T04:53:31;101565.03;;;-0.38;80.44
32109;BME280;18624;50.042;8.436;2023-02-28T04:55:58;101567.41;;;-0.36;80.01
32109;BME280;18624;50.042;8.436;2023-02-28T04:58:25;101550.38;;;-0.49;79.47
32109;BME280;18624;50.042;8.436;2023-02-28T05:00:52;101553.31;;;-0.42;79.28
32109;BME280;18624;50.042;8.436;2023-02-28T05:03:20;101565.88;;;-0.46;79.66
32109;BME280;18624;50.042;8.436;2023-02-28T05:05:48;101464.00;;;-1.03;79.38
32109;BME280;18624;50.042;8.436;2023-02-28T05:08:14;101563.50;;;-0.47;79.91
32109;BME280;18624;50.042;8.436;2023-02-28T05:10:40;101563.94;;;-0.45;79.70
32109;BME280;18624;50.042;8.436;2023-02-28T05:13:11;101569.50;;;-0.42;79.42
32109;BME280;18624;50.042;8.436;2023-02-28T05:15:38;101562.56;;;-0.52;79.26
32109;BME280;18624;50.042;8.436;2023-02-28T05:18:04;101577.78;;;-0.56;80.00
32109;BME280;18624;50.042;8.436;2023-02-28T05:20:31;101571.16;;;-0.58;79.79
32109;BME280;18624;50.042;8.436;2023-02-28T05:22:58;101567.50;;;-0.54;80.09
32109;BME280;18624;50.042;8.436;2023-02-28T05:25:25;101578.28;;;-0.54;79.67
32109;BME280;18624;50.042;8.436;2023-02-28T05:27:51;101574.94;;;-0.59;79.96
32109;BME280;18624;50.042;8.436;2023-02-28T05:30:18;101575.91;;;-0.64;80.01
32109;BME280;18624;50.042;8.436;2023-02-28T05:32:50;101571.16;;;-0.58;79.73
32109;BME280;18624;50.042;8.436;2023-02-28T05:35:16;101568.94;;;-0.56;79.50
32109;BME280;18624;50.042;8.436;2023-02-28T05:37:43;101576.84;;;-0.60;79.51
32109;BME280;18624;50.042;8.436;2023-02-28T05:40:10;101572.06;;;-0.54;78.94
32109;BME280;18624;50.042;8.436;2023-02-28T05:42:37;101576.38;;;-0.53;78.55
32109;BME280;18624;50.042;8.436;2023-02-28T05:45:04;101582.16;;;-0.42;78.03
32109;BME280;18624;50.042;8.436;2023-02-28T05:47:31;101583.47;;;-0.48;77.63
32109;BME280;18624;50.042;8.436;2023-02-28T05:49:57;101580.03;;;-0.58;77.60
32109;BME280;18624;50.042;8.436;2023-02-28T05:52:24;101580.84;;;-0.66;78.69
32109;BME280;18624;50.042;8.436;2023-02-28T05:54:50;101582.72;;;-0.58;78.87
32109;BME280;18624;50.042;8.436;2023-02-28T05:57:16;101590.81;;;-0.58;78.36
32109;BME280;18624;50.042;8.436;2023-02-28T05:59:50;101576.59;;;-0.67;78.82
32109;BME280;18624;50.042;8.436;2023-02-28T06:02:17;101580.06;;;-0.66;79.03
32109;BME280;18624;50.042;8.436;2023-02-28T06:04:44;101585.13;;;-0.65;79.17
32109;BME280;18624;50.042;8.436;2023-02-28T06:07:11;101569.31;;;-0.75;79.51
32109;BME280;18624;50.042;8.436;2023-02-28T06:09:38;101588.00;;;-0.70;79.57
32109;BME280;18624;50.042;8.436;2023-02-28T06:12:06;101588.78;;;-0.69;79.16
32109;BME280;18624;50.042;8.436;2023-02-28T06:14:34;101597.63;;;-0.69;79.29
32109;BME280;18624;50.042;8.436;2023-02-28T06:17:01;101585.47;;;-0.75;79.69
32109;BME280;18624;50.042;8.436;2023-02-28T06:19:28;101591.81;;;-0.71;79.77
32109;BME280;18624;50.042;8.436;2023-02-28T06:21:56;101590.88;;;-0.75;79.45
32109;BME280;18624;50.042;8.436;2023-02-28T06:24:24;101592.91;;;-0.72;79.68
32109;BME280;18624;50.042;8.436;2023-02-28T06:26:54;101590.69;;;-0.70;79.15
32109;BME280;18624;50.042;8.436;2023-02-28T06:29:20;101595.88;;;-0.65;79.53
32109;BME280;18624;50.042;8.436;2023-02-28T06:31:47;101602.53;;;-0.62;78.86
32109;BME280;18624;50.042;8.436;2023-02-28T06:34:14;101603.97;;;-0.65;78.44
32109;BME280;18624;50.042;8.436;2023-02-28T06:36:41;101599.69;;;-0.66;78.70
32109;BME280;18624;50.042;8.436;2023-02-28T06:39:09;101593.97;;;-0.64;78.29
32109;BME280;18624;50.042;8.436;2023-02-28T06:41:35;101596.81;;;-0.61;78.10
32109;BME280;18624;50.042;8.436;2023-02-28T06:44:19;101611.56;;;-0.58;78.00
32109;BME280;18624;50.042;8.436;2023-02-28T06:46:46;101610.94;;;-0.64;77.98
32109;BME280;18624;50.042;8.436;2023-02-28T06:49:13;101614.59;;;-0.68;77.85
32109;BME280;18624;50.042;8.436;2023-02-28T06:51:41;101611.56;;;-0.58;77.82
32109;BME280;18624;50.042;8.436;2023-02-28T06:54:12;101614.56;;;-0.60;77.40
32109;BME280;18624;50.042;8.436;2023-02-28T06:56:38;101613.59;;;-0.55;77.38
32109;BME280;18624;50.042;8.436;2023-02-28T06:59:05;101616.09;;;-0.50;77.04
32109;BME280;18624;50.042;8.436;2023-02-28T07:01:32;101623.88;;;-0.48;76.71
32109;BME280;18624;50.042;8.436;2023-02-28T07:03:59;101625.63;;;-0.53;76.57
32109;BME280;18624;50.042;8.436;2023-02-28T07:06:26;101624.66;;;-0.48;76.77
32109;BME280;18624;50.042;8.436;2023-02-28T07:08:54;101629.09;;;-0.43;76.21
32109;BME280;18624;50.042;8.436;2023-02-28T07:11:22;101631.28;;;-0.45;76.15
32109;BME280;18624;50.042;8.436;2023-02-28T07:13:55;101623.22;;;-0.45;76.07
32109;BME280;18624;50.042;8.436;2023-02-28T07:16:23;101629.09;;;-0.43;75.23
32109;BME280;18624;50.042;8.436;2023-02-28T07:18:53;101622.88;;;-0.35;75.00
32109;BME280;18624;50.042;8.436;2023-02-28T07:21:21;101635.38;;;-0.31;74.58
32109;BME280;18624;50.042;8.436;2023-02-28T07:23:47;101631.53;;;-0.21;74.09
32109;BME280;18624;50.042;8.436;2023-02-28T07:26:15;101593.88;;;-0.38;73.79
32109;BME280;18624;50.042;8.436;2023-02-28T07:28:44;101627.34;;;-0.10;73.87
32109;BME280;18624;50.042;8.436;2023-02-28T07:31:11;101622.63;;;-0.13;73.02
32109;BME280;18624;50.042;8.436;2023-02-28T07:33:40;101630.28;;;0.06;72.11
32109;BME280;18624;50.042;8.436;2023-02-28T07:36:12;101628.50;;;0.10;72.60
32109;BME280;18624;50.042;8.436;2023-02-28T07:38:45;101627.34;;;0.20;72.30
32109;BME280;18624;50.042;8.436;2023-02-28T07:41:19;101626.63;;;0.32;72.79
32109;BME280;18624;50.042;8.436;2023-02-28T07:43:46;101626.75;;;0.35;71.58
32109;BME280;18624;50.042;8.436;2023-02-28T07:46:15;101629.25;;;0.40;71.93
32109;BME280;18624;50.042;8.436;2023-02-28T07:48:42;101622.69;;;0.50;71.52
32109;BME280;18624;50.042;8.436;2023-02-28T07:51:09;101626.41;;;0.58;71.71
32109;BME280;18624;50.042;8.436;2023-02-28T07:53:35;101634.00;;;0.64;70.14
32109;BME280;18624;50.042;8.436;2023-02-28T07:56:02;101643.00;;;0.68;69.60
32109;BME280;18624;50.042;8.436;2023-02-28T07:58:30;101621.44;;;0.81;69.98
32109;BME280;18624;50.042;8.436;2023-02-28T08:00:57;101623.97;;;0.86;69.41
32109;BME280;18624;50.042;8.436;2023-02-28T08:03:24;101629.72;;;0.96;68.80
32109;BME280;18624;50.042;8.436;2023-02-28T08:05:50;101636.06;;;1.00;67.22
32109;BME280;18624;50.042;8.436;2023-02-28T08:08:18;101643.59;;;1.07;67.07
32109;BME280;18624;50.042;8.436;2023-02-28T08:10:45;101631.22;;;1.06;66.42
32109;BME280;18624;50.042;8.436;2023-02-28T08:13:11;101646.00;;;1.09;66.49
32109;BME280;18624;50.042;8.436;2023-02-28T08:15:38;101638.91;;;1.16;66.36
32109;BME280;18624;50.042;8.436;2023-02-28T08:18:04;101645.47;;;1.27;66.79
32109;BME280;18624;50.042;8.436;2023-02-28T08:20:31;101642.34;;;1.38;65.34
32109;BME280;18624;50.042;8.436;2023-02-28T08:22:57;101639.63;;;1.38;64.78
32109;BME280;18624;50.042;8.436;2023-02-28T08:25:23;101648.00;;;1.45;64.46
32109;BME280;18624;50.042;8.436;2023-02-28T08:27:51;101661.72;;;1.52;64.43
32109;BME280;18624;50.042;8.436;2023-02-28T08:30:18;101648.81;;;1.58;63.26
32109;BME280;18624;50.042;8.436;2023-02-28T08:32:45;101666.25;;;1.60;63.12
32109;BME280;18624;50.042;8.436;2023-02-28T08:35:11;101641.91;;;1.60;61.96
32109;BME280;18624;50.042;8.436;2023-02-28T08:37:38;101644.09;;;1.67;60.44
32109;BME280;18624;50.042;8.436;2023-02-28T08:40:05;101647.66;;;1.71;61.22
32109;BME280;18624;50.042;8.436;2023-02-28T08:42:32;101635.59;;;1.56;60.30
32109;BME280;18624;50.042;8.436;2023-02-28T08:44:58;101609.47;;;1.36;58.56
32109;BME280;18624;50.042;8.436;2023-02-28T08:47:25;101653.28;;;1.66;59.81
32109;BME280;18624;50.042;8.436;2023-02-28T08:49:51;101648.78;;;1.70;59.64
32109;BME280;18624;50.042;8.436;2023-02-28T08:52:18;101655.09;;;1.74;59.22
32109;BME280;18624;50.042;8.436;2023-02-28T08:54:44;101647.91;;;1.78;57.95
32109;BME280;18624;50.042;8.436;2023-02-28T08:57:10;101638.91;;;1.86;58.46
32109;BME280;18624;50.042;8.436;2023-02-28T08:59:37;101646.00;;;1.91;57.28
32109;BME280;18624;50.042;8.436;2023-02-28T09:02:04;101648.47;;;1.96;57.22
32109;BME280;18624;50.042;8.436;2023-02-28T09:04:30;101638.66;;;2.03;56.55
32109;BME280;18624;50.042;8.436;2023-02-28T09:06:57;101639.78;;;2.15;56.70
32109;BME280;18624;50.042;8.436;2023-02-28T09:09:23;101642.59;;;2.18;54.76
32109;BME280;18624;50.042;8.436;2023-02-28T09:11:50;101640.66;;;2.19;54.85
32109;BME280;18624;50.042;8.436;2023-02-28T09:14:16;101649.91;;;2.30;55.13
32109;BME280;18624;50.042;8.436;2023-02-28T09:16:43;101639.63;;;2.36;54.27
32109;BME280;18624;50.042;8.436;2023-02-28T09:19:11;101651.03;;;2.29;53.85
32109;BME280;18624;50.042;8.436;2023-02-28T09:21:38;101598.31;;;2.11;54.18
32109;BME280;18624;50.042;8.436;2023-02-28T09:24:05;101635.56;;;2.42;54.24
32109;BME280;18624;50.042;8.436;2023-02-28T09:26:32;101644.13;;;2.44;53.63
32109;BME280;18624;50.042;8.436;2023-02-28T09:29:13;101637.34;;;2.50;54.26
32109;BME280;18624;50.042;8.436;2023-02-28T09:31:40;101635.31;;;2.47;53.20
32109;BME280;18624;50.042;8.436;2023-02-28T09:34:07;101637.38;;;2.38;52.28
32109;BME280;18624;50.042;8.436;2023-02-28T09:36:33;101645.34;;;2.46;52.28
32109;BME280;18624;50.042;8.436;2023-02-28T09:39:11;101625.75;;;2.37;52.21
32109;BME280;18624;50.042;8.436;2023-02-28T09:41:43;101625.84;;;2.53;52.47
32109;BME280;18624;50.042;8.436;2023-02-28T09:44:24;101627.94;;;2.60;52.79
32109;BME280;18624;50.042;8.436;2023-02-28T09:46:57;101631.78;;;2.59;50.90
32109;BME280;18624;50.042;8.436;2023-02-28T09:49:33;101645.31;;;2.59;51.81
32109;BME280;18624;50.042;8.436;2023-02-28T09:52:05;101626.72;;;2.57;50.93
32109;BME280;18624;50.042;8.436;2023-02-28T09:54:35;101638.34;;;2.58;50.01
32109;BME280;18624;50.042;8.436;2023-02-28T09:57:19;101640.34;;;2.61;50.68
32109;BME280;18624;50.042;8.436;2023-02-28T10:00:17;101648.81;;;2.59;50.04
32109;BME280;18624;50.042;8.436;2023-02-28T10:03:04;101629.63;;;2.64;50.62
32109;BME280;18624;50.042;8.436;2023-02-28T10:05:43;101636.28;;;2.67;50.44
32109;BME280;18624;50.042;8.436;2023-02-28T10:08:19;101641.06;;;2.58;50.66
32109;BME280;18624;50.042;8.436;2023-02-28T10:10:55;101635.19;;;2.56;50.98
32109;BME280;18624;50.042;8.436;2023-02-28T10:13:46;101643.28;;;2.56;50.19
32109;BME280;18624;50.042;8.436;2023-02-28T10:16:22;101641.16;;;2.61;50.65
32109;BME280;18624;50.042;8.436;2023-02-28T10:19:02;101641.34;;;2.68;50.97
32109;BME280;18624;50.042;8.436;2023-02-28T10:21:40;101623.44;;;2.64;50.20
32109;BME280;18624;50.042;8.436;2023-02-28T10:24:20;101634.16;;;2.60;49.69
32109;BME280;18624;50.042;8.436;2023-02-28T10:26:48;101641.47;;;2.60;51.00
32109;BME280;18624;50.042;8.436;2023-02-28T10:29:15;101627.63;;;2.61;50.61
32109;BME280;18624;50.042;8.436;2023-02-28T10:31:41;101631.91;;;2.62;50.96
32109;BME280;18624;50.042;8.436;2023-02-28T10:34:11;101634.13;;;2.72;50.30
32109;BME280;18624;50.042;8.436;2023-02-28T10:36:39;101636.03;;;2.72;49.88
32109;BME280;18624;50.042;8.436;2023-02-28T10:39:33;101633.91;;;2.65;49.86
32109;BME280;18624;50.042;8.436;2023-02-28T10:42:00;101635.56;;;2.70;49.88
32109;BME280;18624;50.042;8.436;2023-02-28T10:44:27;101633.13;;;2.65;50.35
32109;BME280;18624;50.042;8.436;2023-02-28T10:46:53;101632.22;;;2.61;50.18
32109;BME280;18624;50.042;8.436;2023-02-28T10:51:52;101632.88;;;2.70;49.97
32109;BME280;18624;50.042;8.436;2023-02-28T10:57:28;101626.88;;;2.76;49.76
32109;BME280;18624;50.042;8.436;2023-02-28T11:02:40;101625.50;;;2.83;49.69
32109;BME280;18624;50.042;8.436;2023-02-28T11:10:30;101619.00;;;2.99;48.87
32109;BME280;18624;50.042;8.436;2023-02-28T11:13:01;101604.22;;;2.97;47.85
32109;BME280;18624;50.042;8.436;2023-02-28T11:15:31;101613.94;;;2.98;48.71
32109;BME280;18624;50.042;8.436;2023-02-28T11:20:51;101592.34;;;3.01;47.60
32109;BME280;18624;50.042;8.436;2023-02-28T11:23:19;101595.75;;;2.98;48.61
32109;BME280;18624;50.042;8.436;2023-02-28T11:25:49;101598.09;;;3.00;49.68
32109;BME280;18624;50.042;8.436;2023-02-28T11:28:25;101596.38;;;3.08;48.38
32109;BME280;18624;50.042;8.436;2023-02-28T11:33:47;101594.56;;;3.12;48.09
32109;BME280;18624;50.042;8.436;2023-02-28T11:36:29;101595.59;;;3.23;48.05
32109;BME280;18624;50.042;8.436;2023-02-28T11:38:59;101591.50;;;3.29;47.86
32109;BME280;18624;50.042;8.436;2023-02-28T11:42:07;101596.94;;;3.29;47.37
32109;BME280;18624;50.042;8.436;2023-02-28T11:50:40;101588.59;;;3.38;48.39
32109;BME280;18624;50.042;8.436;2023-02-28T11:58:59;101584.88;;;3.42;46.94
32109;BME280;18624;50.042;8.436;2023-02-28T12:01:38;101581.03;;;3.43;47.24
32109;BME280;18624;50.042;8.436;2023-02-28T12:10:28;101586.97;;;3.49;47.70
32109;BME280;18624;50.042;8.436;2023-02-28T12:13:08;101576.13;;;3.49;47.68
32109;BME280;18624;50.042;8.436;2023-02-28T12:15:47;101593.63;;;3.51;46.38
32109;BME280;18624;50.042;8.436;2023-02-28T12:21:11;101585.50;;;3.51;46.70
32109;BME280;18624;50.042;8.436;2023-02-28T12:26:39;101578.00;;;3.64;45.45
32109;BME280;18624;50.042;8.436;2023-02-28T12:29:23;101574.19;;;3.65;46.46
32109;BME280;18624;50.042;8.436;2023-02-28T12:32:08;101581.59;;;3.68;46.75
32109;BME280;18624;50.042;8.436;2023-02-28T12:34:39;101577.50;;;3.74;46.26
32109;BME280;18624;50.042;8.436;2023-02-28T12:37:16;101539.81;;;3.53;45.71
32109;BME280;18624;50.042;8.436;2023-02-28T12:39:46;101583.63;;;3.71;46.21
32109;BME280;18624;50.042;8.436;2023-02-28T12:42:29;101576.44;;;3.79;45.77
32109;BME280;18624;50.042;8.436;2023-02-28T12:45:03;101561.56;;;3.73;46.31
32109;BME280;18624;50.042;8.436;2023-02-28T12:47:31;101576.72;;;3.74;46.22
32109;BME280;18624;50.042;8.436;2023-02-28T12:50:10;101572.81;;;3.91;46.04
32109;BME280;18624;50.042;8.436;2023-02-28T12:52:55;101564.34;;;3.92;45.90
32109;BME280;18624;50.042;8.436;2023-02-28T12:55:56;101564.25;;;3.89;45.87
32109;BME280;18624;50.042;8.436;2023-02-28T13:09:28;101563.97;;;3.94;46.15
32109;BME280;18624;50.042;8.436;2023-02-28T13:11:56;101577.34;;;4.02;45.88
32109;BME280;18624;50.042;8.436;2023-02-28T13:14:35;101562.13;;;3.98;45.82
32109;BME280;18624;50.042;8.436;2023-02-28T13:19:44;101559.91;;;4.03;45.82
32109;BME280;18624;50.042;8.436;2023-02-28T13:22:47;101567.19;;;3.99;46.01
32109;BME280;18624;50.042;8.436;2023-02-28T13:28:00;101545.41;;;3.96;46.48
32109;BME280;18624;50.042;8.436;2023-02-28T13:33:33;101529.56;;;3.98;46.45
32109;BME280;18624;50.042;8.436;2023-02-28T13:38:52;101536.16;;;4.16;46.72
32109;BME280;18624;50.042;8.436;2023-02-28T13:44:09;101539.44;;;4.25;46.24
32109;BME280;18624;50.042;8.436;2023-02-28T13:57:38;101554.81;;;4.37;45.85
32109;BME280;18624;50.042;8.436;2023-02-28T14:05:21;101545.38;;;4.31;46.17
32109;BME280;18624;50.042;8.436;2023-02-28T14:07:54;101538.00;;;4.31;46.34
32109;BME280;18624;50.042;8.436;2023-02-28T14:10:30;101543.72;;;4.26;46.46
32109;BME280;18624;50.042;8.436;2023-02-28T14:15:36;101540.94;;;4.23;46.48
32109;BME280;18624;50.042;8.436;2023-02-28T14:21:16;101532.59;;;4.12;47.32
32109;BME280;18624;50.042;8.436;2023-02-28T14:26:35;101541.59;;;4.16;46.68
32109;BME280;18624;50.042;8.436;2023-02-28T14:37:30;101533.09;;;4.18;46.28
32109;BME280;18624;50.042;8.436;2023-02-28T14:40:00;101530.53;;;4.25;46.93
32109;BME280;18624;50.042;8.436;2023-02-28T14:42:35;101522.38;;;4.25;46.38
32109;BME280;18624;50.042;8.436;2023-02-28T14:45:04;101509.44;;;4.18;45.97
32109;BME280;18624;50.042;8.436;2023-02-28T14:47:32;101509.81;;;4.17;47.25
32109;BME280;18624;50.042;8.436;2023-02-28T14:50:00;101512.59;;;4.20;47.58
32109;BME280;18624;50.042;8.436;2023-02-28T14:52:30;101511.09;;;4.23;47.10
32109;BME280;18624;50.042;8.436;2023-02-28T14:55:05;101502.16;;;4.22;46.41
32109;BME280;18624;50.042;8.436;2023-02-28T14:57:38;101502.53;;;4.21;47.25
32109;BME280;18624;50.042;8.436;2023-02-28T15:02:49;101498.38;;;4.07;47.43
32109;BME280;18624;50.042;8.436;2023-02-28T15:05:32;101506.38;;;4.20;47.52
32109;BME280;18624;50.042;8.436;2023-02-28T15:08:15;101508.81;;;4.25;46.70
32109;BME280;18624;50.042;8.436;2023-02-28T15:10:44;101515.03;;;4.25;47.53
32109;BME280;18624;50.042;8.436;2023-02-28T15:13:13;101508.53;;;4.30;47.22
32109;BME280;18624;50.042;8.436;2023-02-28T15:18:49;101509.53;;;4.22;46.92
32109;BME280;18624;50.042;8.436;2023-02-28T15:21:20;101516.19;;;4.24;47.29
32109;BME280;18624;50.042;8.436;2023-02-28T15:24:04;101516.50;;;4.23;47.08
32109;BME280;18624;50.042;8.436;2023-02-28T15:26:34;101518.97;;;4.28;47.36
32109;BME280;18624;50.042;8.436;2023-02-28T15:29:06;101475.81;;;4.03;47.31